Time;durP1;ratioP1;P1;durP2;ratioP2;P2;SDS_P1;SDS_P2;PMS_P1;PMS_P2;Temp;Humidity;BMP_temperature;BMP_pressure;BME280_temperature;BME280_humidity;BME280_pressure;Samples;Min_cycle;Max_cycle;Signal;HPM_P1;HPM_P2
2023/07/16 00:01:05;;;;;;;2.90;2.60;;;;;;;22.30;100.00;97326.78;1224513;75;2927338;-69
2023/07/16 00:03:37;;;;;;;3.55;3.25;;;;;;;21.96;100.00;97322.41;1223988;75;2924457;-67
2023/07/16 00:06:10;;;;;;;3.45;3.05;;;;;;;22.11;100.00;97313.25;1224082;75;2924274;-64
2023/07/16 00:08:43;;;;;;;3.15;2.85;;;;;;;22.23;100.00;97308.78;1224268;75;2921970;-69
2023/07/16 00:11:15;;;;;;;3.10;2.65;;;;;;;22.35;100.00;97311.16;1224675;75;2924577;-68
2023/07/16 00:13:51;;;;;;;2.20;2.00;;;;;;;22.30;100.00;97313.56;1224249;75;2930923;-67
2023/07/16 00:16:24;;;;;;;2.90;2.10;;;;;;;22.24;100.00;97307.47;1223523;75;2929825;-68
2023/07/16 00:18:56;;;;;;;2.55;2.20;;;;;;;22.15;100.00;97312.88;1223930;75;2921715;-67
2023/07/16 00:21:29;;;;;;;2.45;2.25;;;;;;;22.13;100.00;97310.66;1224108;75;2906708;-68
2023/07/16 00:24:02;;;;;;;2.00;1.80;;;;;;;22.13;100.00;97305.09;1223803;75;2923795;-68
2023/07/16 00:26:35;;;;;;;2.20;1.90;;;;;;;22.17;100.00;97301.91;1224008;75;2921767;-67
2023/07/16 00:29:11;;;;;;;2.35;1.90;;;;;;;22.11;100.00;97311.22;1223483;75;2925842;-68
2023/07/16 00:31:43;;;;;;;2.25;2.05;;;;;;;22.09;100.00;97308.25;1224119;75;2940088;-65
2023/07/16 00:34:16;;;;;;;2.40;2.20;;;;;;;22.00;100.00;97308.09;1224028;75;2921329;-67
2023/07/16 00:36:48;;;;;;;2.35;2.15;;;;;;;22.01;100.00;97306.81;1223553;75;2926572;-69
2023/07/16 00:39:21;;;;;;;2.15;1.80;;;;;;;21.96;100.00;97308.50;1223923;75;2920201;-67
2023/07/16 00:41:53;;;;;;;2.65;2.45;;;;;;;21.72;100.00;97307.06;1224042;75;2948725;-67
2023/07/16 00:44:29;;;;;;;2.40;2.20;;;;;;;21.96;100.00;97307.72;1223616;75;2924105;-66
2023/07/16 00:47:02;;;;;;;3.05;2.15;;;;;;;21.94;100.00;97302.00;1223577;75;2929081;-67
2023/07/16 00:49:34;;;;;;;3.25;2.00;;;;;;;21.88;100.00;97311.28;1223970;75;2923325;-67
2023/07/16 00:52:10;;;;;;;1.80;1.70;;;;;;;21.90;100.00;97308.66;1224209;75;2920707;-67
2023/07/16 00:54:43;;;;;;;1.90;1.80;;;;;;;21.91;100.00;97312.19;1223757;75;2921979;-67
2023/07/16 00:57:16;;;;;;;2.65;1.95;;;;;;;21.81;100.00;97308.53;1224070;75;2919286;-67
2023/07/16 00:59:51;;;;;;;4.15;2.70;;;;;;;21.56;100.00;97311.19;1223586;75;2923497;-70
2023/07/16 01:02:24;;;;;;;3.70;2.90;;;;;;;21.44;100.00;97310.81;1223499;75;2923782;-69
2023/07/16 01:04:56;;;;;;;3.50;3.05;;;;;;;21.67;100.00;97311.53;1223470;75;2941570;-66
2023/07/16 01:07:34;;;;;;;3.75;2.35;;;;;;;21.77;100.00;97305.34;1223497;75;2937764;-65
2023/07/16 01:10:08;;;;;;;2.70;2.40;;;;;;;21.72;100.00;97303.53;1223334;75;2938552;-67
2023/07/16 01:12:41;;;;;;;2.30;2.10;;;;;;;21.70;100.00;97292.97;1223425;75;2921493;-67
2023/07/16 01:15:16;;;;;;;2.00;1.80;;;;;;;21.57;100.00;97302.25;1224342;75;2918577;-68
2023/07/16 01:17:49;;;;;;;2.10;1.90;;;;;;;21.61;100.00;97287.97;1222937;75;2918987;-68
2023/07/16 01:20:19;;;;;;;2.45;2.25;;;;;;;21.58;100.00;97289.81;1223664;75;2921303;-69
2023/07/16 01:23:30;;;;;;;2.65;2.15;;;;;;;21.56;100.00;97286.13;1223530;75;2963546;-67
2023/07/16 01:26:36;;;;;;;2.50;2.10;;;;;;;21.58;100.00;97277.94;1223521;75;2921229;-68
2023/07/16 01:29:34;;;;;;;2.20;1.95;;;;;;;21.50;100.00;97277.94;1223070;75;2932998;-67
2023/07/16 01:32:11;;;;;;;2.60;2.10;;;;;;;21.44;100.00;97280.19;1223300;75;2937470;-67
2023/07/16 01:34:45;;;;;;;2.30;1.80;;;;;;;21.42;100.00;97272.38;1224515;75;2933964;-69
2023/07/16 01:37:17;;;;;;;2.50;2.30;;;;;;;21.35;100.00;97267.53;1224115;75;2924972;-69
2023/07/16 01:39:50;;;;;;;3.20;2.30;;;;;;;21.24;100.00;97270.72;1223596;75;2921201;-69
2023/07/16 01:42:23;;;;;;;2.30;2.10;;;;;;;21.18;100.00;97270.16;1224085;75;2930115;-66
2023/07/16 01:44:58;;;;;;;2.90;2.60;;;;;;;21.07;100.00;97257.38;1224080;75;2922562;-66
2023/07/16 01:47:42;;;;;;;2.50;2.20;;;;;;;21.14;100.00;97267.00;1223735;75;2924311;-67
2023/07/16 01:50:15;;;;;;;2.65;2.45;;;;;;;21.04;100.00;97252.91;1224347;75;2921965;-65
2023/07/16 01:52:47;;;;;;;3.75;2.15;;;;;;;21.16;100.00;97261.63;1223647;75;2925141;-67
2023/07/16 01:55:20;;;;;;;2.90;2.60;;;;;;;20.88;100.00;97254.22;1223277;75;2923386;-65
2023/07/16 01:57:53;;;;;;;3.00;2.70;;;;;;;21.11;100.00;97254.22;1223356;75;2927219;-70
2023/07/16 02:00:28;;;;;;;4.20;2.85;;;;;;;21.06;100.00;97253.84;1224380;75;2924646;-69
2023/07/16 02:03:01;;;;;;;2.70;2.40;;;;;;;21.06;100.00;97250.31;1223767;75;2928814;-68
2023/07/16 02:05:33;;;;;;;2.80;2.10;;;;;;;21.08;100.00;97253.28;1223746;75;2924234;-67
2023/07/16 02:08:06;;;;;;;2.50;2.30;;;;;;;21.06;100.00;97253.84;1223928;75;2921252;-66
2023/07/16 02:10:39;;;;;;;2.65;2.40;;;;;;;21.03;100.00;97254.22;1223377;75;2929754;-67
2023/07/16 02:13:12;;;;;;;4.60;3.10;;;;;;;20.78;100.00;97260.34;1223697;75;2925356;-67
2023/07/16 02:15:47;;;;;;;4.20;3.80;;;;;;;20.56;100.00;97255.47;1223955;75;2920561;-68
2023/07/16 02:18:20;;;;;;;3.25;2.95;;;;;;;20.81;100.00;97253.66;1224324;75;2924740;-69
2023/07/16 02:20:52;;;;;;;3.40;3.10;;;;;;;20.86;100.00;97274.25;1224206;75;2922479;-68
2023/07/16 02:23:25;;;;;;;2.95;2.50;;;;;;;20.73;100.00;97257.72;1223895;75;2925330;-68
2023/07/16 02:25:57;;;;;;;3.25;2.55;;;;;;;20.83;100.00;97267.03;1224828;75;2919170;-67
2023/07/16 02:28:30;;;;;;;2.30;2.10;;;;;;;20.76;100.00;97262.94;1223592;75;2927744;-65
2023/07/16 02:31:06;;;;;;;2.50;2.10;;;;;;;20.82;100.00;97248.84;1224245;75;2929589;-68
2023/07/16 02:33:38;;;;;;;2.30;2.10;;;;;;;20.76;100.00;97254.59;1224088;75;2932085;-65
2023/07/16 02:36:11;;;;;;;2.40;2.15;;;;;;;20.72;100.00;97259.78;1223786;67;2933119;-67
2023/07/16 02:38:43;;;;;;;3.10;2.40;;;;;;;20.62;100.00;97256.06;1224614;75;2925515;-67
2023/07/16 02:41:16;;;;;;;2.65;2.00;;;;;;;20.49;100.00;97248.56;1224237;75;2921477;-66
2023/07/16 02:43:49;;;;;;;3.40;2.95;;;;;;;20.53;100.00;97248.97;1224435;75;2931269;-66
2023/07/16 02:46:24;;;;;;;3.55;2.30;;;;;;;20.59;100.00;97255.13;1224473;75;2921600;-70
2023/07/16 02:48:57;;;;;;;2.40;2.20;;;;;;;20.63;100.00;97247.16;1224423;75;2919640;-68
2023/07/16 02:51:30;;;;;;;2.55;2.30;;;;;;;20.59;100.00;97255.13;1224699;67;2929841;-67
2023/07/16 02:54:02;;;;;;;2.80;2.50;;;;;;;20.25;100.00;97246.31;1224628;75;2924999;-67
2023/07/16 02:56:35;;;;;;;4.35;2.85;;;;;;;20.36;100.00;97246.72;1225276;75;2921643;-69
2023/07/16 02:59:08;;;;;;;3.40;3.10;;;;;;;20.08;100.00;97249.59;1224140;75;2918792;-68
2023/07/16 03:01:43;;;;;;;4.20;3.30;;;;;;;20.31;100.00;97253.19;1222738;75;2930039;-67
2023/07/16 03:04:15;;;;;;;3.65;3.20;;;;;;;20.36;100.00;97260.59;1225144;75;2921456;-66
2023/07/16 03:06:48;;;;;;;3.75;3.20;;;;;;;20.27;100.00;97258.34;1224228;75;2930447;-68
2023/07/16 03:09:21;;;;;;;2.75;2.20;;;;;;;20.36;100.00;97257.09;1223949;75;2941991;-68
2023/07/16 03:11:53;;;;;;;2.40;2.20;;;;;;;20.40;100.00;97263.78;1223849;75;2922801;-70
2023/07/16 03:14:26;;;;;;;2.30;2.10;;;;;;;20.41;100.00;97273.59;1224147;75;2924745;-69
2023/07/16 03:17:01;;;;;;;2.65;2.20;;;;;;;20.45;100.00;97262.13;1224226;75;2931041;-66
2023/07/16 03:19:34;;;;;;;2.80;2.30;;;;;;;20.15;100.00;97274.63;1223282;75;2927789;-66
2023/07/16 03:22:07;;;;;;;3.50;2.90;;;;;;;19.93;100.00;97272.50;1224625;75;2922972;-67
2023/07/16 03:24:40;;;;;;;5.25;3.10;;;;;;;20.10;100.00;97267.19;1224451;75;2927850;-67
2023/07/16 03:27:13;;;;;;;3.25;2.40;;;;;;;20.10;100.00;97266.47;1223406;75;2938636;-68
2023/07/16 03:29:45;;;;;;;2.70;2.30;;;;;;;20.26;100.00;97275.59;1224225;75;2924515;-66
2023/07/16 03:32:21;;;;;;;3.30;2.40;;;;;;;20.19;100.00;97269.47;1223658;75;2934321;-66
2023/07/16 03:34:53;;;;;;;3.85;2.25;;;;;;;20.24;100.00;97265.03;1224537;75;2920879;-66
2023/07/16 03:37:26;;;;;;;3.15;2.45;;;;;;;20.30;100.00;97275.97;1224337;75;2922990;-70
2023/07/16 03:39:58;;;;;;;2.60;2.40;;;;;;;20.15;100.00;97277.41;1223820;75;2929077;-67
2023/07/16 03:42:31;;;;;;;3.60;2.55;;;;;;;19.99;100.00;97284.97;1224158;75;2919108;-67
2023/07/16 03:45:04;;;;;;;3.90;2.95;;;;;;;20.04;100.00;97288.13;1223515;75;2919396;-68
2023/07/16 03:47:39;;;;;;;3.55;2.85;;;;;;;20.10;100.00;97291.47;1224267;75;2920819;-67
2023/07/16 03:50:13;;;;;;;3.70;3.15;;;;;;;20.01;100.00;97289.94;1223011;75;2922013;-67
2023/07/16 03:52:46;;;;;;;3.30;2.45;;;;;;;20.19;100.00;97285.41;1224179;75;2926115;-66
2023/07/16 03:55:19;;;;;;;3.45;3.05;;;;;;;20.06;100.00;97282.75;1224042;75;2922048;-69
2023/07/16 03:57:52;;;;;;;3.30;3.00;;;;;;;20.18;100.00;97284.66;1223462;75;2922419;-67
2023/07/16 04:00:25;;;;;;;2.70;2.50;;;;;;;20.30;100.00;97287.84;1224418;75;2927078;-68
2023/07/16 04:03:00;;;;;;;3.40;3.10;;;;;;;20.27;100.00;97277.06;1224053;75;2924661;-69
2023/07/16 04:05:32;;;;;;;3.00;2.70;;;;;;;20.33;100.00;97291.56;1223799;75;2925483;-66
2023/07/16 04:08:05;;;;;;;3.75;3.40;;;;;;;20.20;100.00;97292.44;1224179;75;2921852;-66
2023/07/16 04:10:38;;;;;;;5.25;4.75;;;;;;;20.12;100.00;97295.19;1224604;75;2931307;-65
2023/07/16 04:13:11;;;;;;;3.90;3.50;;;;;;;20.43;100.00;97304.38;1224329;75;2935897;-67
2023/07/16 04:15:43;;;;;;;3.35;2.90;;;;;;;20.52;100.00;97303.09;1223902;75;2931246;-67
2023/07/16 04:18:18;;;;;;;3.15;2.75;;;;;;;20.43;100.00;97309.19;1223819;75;2927176;-67
2023/07/16 04:20:51;;;;;;;4.10;2.80;;;;;;;20.47;100.00;97317.16;1223890;75;2931015;-67
2023/07/16 04:23:24;;;;;;;2.70;2.50;;;;;;;20.61;100.00;97315.75;1223626;75;2931109;-68
2023/07/16 04:25:58;;;;;;;2.30;2.10;;;;;;;20.61;100.00;97324.84;1224296;75;2922445;-65
2023/07/16 04:28:31;;;;;;;2.55;2.35;;;;;;;20.72;100.00;97329.31;1222977;75;2928966;-66
2023/07/16 04:31:04;;;;;;;2.50;2.30;;;;;;;20.73;100.00;97330.06;1223979;75;2923811;-67
2023/07/16 04:33:39;;;;;;;2.60;2.40;;;;;;;20.78;100.00;97335.47;1223843;75;2923885;-66
2023/07/16 04:36:11;;;;;;;2.45;2.20;;;;;;;20.75;100.00;97355.28;1223624;75;2927749;-67
2023/07/16 04:38:44;;;;;;;2.50;2.30;;;;;;;20.91;100.00;97353.28;1223663;75;2919942;-69
2023/07/16 04:41:17;;;;;;;2.75;2.35;;;;;;;20.90;100.00;97349.00;1224181;75;2921016;-65
2023/07/16 04:43:49;;;;;;;2.85;2.30;;;;;;;20.90;100.00;97349.00;1224161;75;2923171;-68
2023/07/16 04:46:22;;;;;;;2.65;2.30;;;;;;;21.02;100.00;97356.47;1223807;75;2921308;-65
2023/07/16 04:48:57;;;;;;;2.25;2.05;;;;;;;21.09;100.00;97366.09;1223814;75;2927235;-68
2023/07/16 04:51:30;;;;;;;3.50;2.30;;;;;;;21.23;100.00;97358.31;1222776;75;2971138;-67
2023/07/16 04:54:02;;;;;;;4.70;3.60;;;;;;;21.07;100.00;97357.56;1224180;75;2936064;-66
2023/07/16 04:56:35;;;;;;;2.80;2.60;;;;;;;21.16;100.00;97364.63;1223943;75;2926759;-67
2023/07/16 04:59:07;;;;;;;4.20;3.30;;;;;;;21.16;100.00;97362.56;1224231;75;2927184;-69
2023/07/16 05:01:40;;;;;;;3.75;2.85;;;;;;;21.35;100.00;97369.84;1223400;75;2929060;-66
2023/07/16 05:04:15;;;;;;;3.40;3.10;;;;;;;21.42;100.00;97381.00;1223901;75;2934574;-68
2023/07/16 05:06:48;;;;;;;2.70;2.45;;;;;;;21.57;100.00;97387.84;1224077;75;2918547;-67
2023/07/16 05:09:20;;;;;;;2.55;2.35;;;;;;;21.70;100.00;97391.19;1223939;75;2932276;-67
2023/07/16 05:11:53;;;;;;;2.75;2.50;;;;;;;21.75;100.00;97399.94;1222424;75;2923047;-69
2023/07/16 05:14:25;;;;;;;3.15;2.60;;;;;;;21.83;100.00;97406.22;1224120;75;2919088;-67
2023/07/16 05:16:59;;;;;;;2.75;2.40;;;;;;;21.87;100.00;97393.41;1223883;75;2924345;-68
2023/07/16 05:19:34;;;;;;;2.90;2.60;;;;;;;21.96;100.00;97406.03;1224174;75;2924920;-68
2023/07/16 05:22:07;;;;;;;7.35;4.70;;;;;;;21.83;100.00;97400.66;1223638;75;2924667;-67
2023/07/16 05:24:40;;;;;;;5.45;4.95;;;;;;;22.16;100.00;97414.72;1223235;75;2928949;-69
2023/07/16 05:27:12;;;;;;;4.15;3.75;;;;;;;22.30;100.00;97422.34;1223576;75;2927674;-67
2023/07/16 05:29:45;;;;;;;5.00;4.20;;;;;;;22.31;100.00;97432.19;1224002;75;2924043;-68
2023/07/16 05:32:17;;;;;;;4.85;4.40;;;;;;;22.31;100.00;97442.59;1224464;75;2925944;-66
2023/07/16 05:34:53;;;;;;;4.70;4.15;;;;;;;22.50;100.00;97456.13;1223360;75;2931406;-69
2023/07/16 05:37:25;;;;;;;4.15;3.75;;;;;;;22.64;100.00;97453.84;1224482;75;2924924;-69
2023/07/16 05:39:58;;;;;;;3.75;3.40;;;;;;;22.64;100.00;97453.84;1223758;75;2925100;-67
2023/07/16 05:42:30;;;;;;;3.85;3.50;;;;;;;22.86;100.00;97458.59;1223816;75;2931218;-68
2023/07/16 05:45:03;;;;;;;3.50;3.15;;;;;;;22.92;100.00;97456.34;1222005;75;3025860;-68
2023/07/16 05:47:36;;;;;;;3.85;3.45;;;;;;;23.00;100.00;97452.78;1224479;75;2921681;-68
2023/07/16 05:50:12;;;;;;;4.15;3.10;;;;;;;23.19;100.00;97453.06;1224291;75;2933388;-68
2023/07/16 05:52:45;;;;;;;4.30;3.05;;;;;;;23.30;100.00;97466.56;1223035;75;2917861;-69
2023/07/16 05:55:19;;;;;;;3.85;3.50;;;;;;;23.32;100.00;97461.16;1223330;75;2931802;-67
2023/07/16 05:57:51;;;;;;;4.30;3.55;;;;;;;23.54;100.00;97467.16;1223967;75;2930916;-68
2023/07/16 06:00:24;;;;;;;3.70;3.25;;;;;;;23.69;100.00;97472.66;1224091;75;2933303;-70
2023/07/16 06:02:57;;;;;;;5.00;4.10;;;;;;;23.68;100.00;97484.38;1224107;75;2923325;-67
2023/07/16 06:05:34;;;;;;;4.70;4.30;;;;;;;23.90;100.00;97488.34;1223858;75;2914060;-67
2023/07/16 06:08:07;;;;;;;5.60;4.25;;;;;;;23.90;100.00;97477.16;1224281;75;2929084;-67
2023/07/16 06:10:40;;;;;;;4.00;3.60;;;;;;;24.22;100.00;97485.44;1223893;75;2933434;-67
2023/07/16 06:13:12;;;;;;;3.20;2.90;;;;;;;24.37;100.00;97490.16;1224440;75;2919989;-69
2023/07/16 06:15:45;;;;;;;3.15;2.75;;;;;;;24.37;100.00;97486.63;1224033;75;2924015;-69
2023/07/16 06:18:18;;;;;;;5.90;5.30;;;;;;;24.33;100.00;97492.59;1225022;75;2921139;-69
2023/07/16 06:20:55;;;;;;;5.40;4.50;;;;;;;24.40;100.00;97500.19;1224470;75;2921999;-69
2023/07/16 06:23:28;;;;;;;5.15;4.65;;;;;;;24.62;100.00;97501.28;1224518;75;2922675;-69
2023/07/16 06:26:01;;;;;;;4.50;4.10;;;;;;;24.91;100.00;97505.63;1223519;75;2920406;-66
2023/07/16 06:28:33;;;;;;;4.85;4.35;;;;;;;24.84;100.00;97513.53;1223818;75;2927621;-68
2023/07/16 06:31:06;;;;;;;4.35;3.95;;;;;;;25.14;100.00;97511.69;1223761;75;2915828;-68
2023/07/16 06:33:39;;;;;;;4.30;3.90;;;;;;;25.26;100.00;97520.34;1223725;75;2927216;-66
2023/07/16 06:36:14;;;;;;;4.70;3.75;;;;;;;25.44;100.00;97516.16;1223782;75;2918231;-70
2023/07/16 06:38:47;;;;;;;6.00;5.40;;;;;;;25.30;100.00;97523.44;1224424;75;2918977;-67
2023/07/16 06:41:20;;;;;;;5.45;4.80;;;;;;;25.36;100.00;97526.75;1223673;75;2920011;-69
2023/07/16 06:43:53;;;;;;;5.75;4.40;;;;;;;25.65;100.00;97514.94;1224274;75;2919427;-67
2023/07/16 06:46:26;;;;;;;8.80;4.90;;;;;;;25.69;100.00;97518.06;1223517;75;2918108;-69
2023/07/16 06:48:58;;;;;;;6.00;5.30;;;;;;;25.81;100.00;97529.47;1224479;75;2922655;-70
2023/07/16 06:51:33;;;;;;;5.15;4.65;;;;;;;26.03;100.00;97527.66;1223974;75;2920321;-69
2023/07/16 06:54:06;;;;;;;5.60;4.95;;;;;;;26.00;100.00;97523.97;1224574;75;2923907;-66
2023/07/16 06:56:39;;;;;;;8.50;5.30;;;;;;;26.22;100.00;97541.75;1224129;75;2925127;-68
2023/07/16 06:59:12;;;;;;;5.20;4.50;;;;;;;26.44;100.00;97539.13;1224180;75;2920836;-69
2023/07/16 07:01:44;;;;;;;6.65;5.20;;;;;;;26.43;100.00;97540.44;1224591;75;2929311;-69
2023/07/16 07:04:17;;;;;;;6.00;4.90;;;;;;;26.69;100.00;97536.81;1224723;75;2927084;-67
2023/07/16 07:06:52;;;;;;;8.05;5.40;;;;;;;26.90;100.00;97536.22;1223929;75;2918412;-70
2023/07/16 07:09:24;;;;;;;6.20;4.90;;;;;;;27.07;99.59;97526.91;1224967;75;2921239;-70
2023/07/16 07:11:57;;;;;;;4.05;3.65;;;;;;;27.45;74.77;97538.69;1224503;75;2919978;-68
2023/07/16 07:14:30;;;;;;;4.85;3.45;;;;;;;27.68;75.77;97540.97;1224626;75;2922770;-67
2023/07/16 07:17:02;;;;;;;4.45;3.30;;;;;;;27.80;70.11;97539.75;1224599;75;2913768;-69
2023/07/16 07:19:35;;;;;;;3.05;2.75;;;;;;;28.06;70.22;97542.19;1224192;75;2945555;-66
2023/07/16 07:22:11;;;;;;;3.75;3.35;;;;;;;28.16;65.19;97548.50;1225257;75;2933862;-67
2023/07/16 07:24:44;;;;;;;4.15;2.90;;;;;;;28.24;63.39;97546.25;1224087;75;2925112;-69
2023/07/16 07:27:17;;;;;;;5.80;3.10;;;;;;;28.31;62.85;97553.00;1225538;75;2919845;-67
2023/07/16 07:29:51;;;;;;;3.40;2.85;;;;;;;28.67;64.05;97557.53;1225034;75;2921654;-66
2023/07/16 07:32:24;;;;;;;3.30;3.00;;;;;;;28.79;65.08;97560.44;1224932;75;2916112;-66
2023/07/16 07:34:57;;;;;;;3.00;2.50;;;;;;;29.04;64.38;97557.84;1225181;75;2917688;-67
2023/07/16 07:37:32;;;;;;;2.95;2.25;;;;;;;29.16;61.68;97562.84;1224410;75;2914437;-65
2023/07/16 07:40:05;;;;;;;4.65;3.95;;;;;;;28.98;68.32;97570.81;1224656;75;2918221;-67
2023/07/16 07:42:38;;;;;;;5.40;4.35;;;;;;;28.79;71.38;97571.69;1224403;75;2925359;-68
2023/07/16 07:45:12;;;;;;;5.15;4.20;;;;;;;28.53;72.38;97554.56;1224277;75;2920393;-67
2023/07/16 07:47:45;;;;;;;4.45;3.30;;;;;;;29.04;66.92;97571.22;1224308;75;2930108;-66
2023/07/16 07:50:17;;;;;;;3.90;3.05;;;;;;;29.43;66.13;97573.72;1224904;75;2918738;-67
2023/07/16 07:52:52;;;;;;;3.85;3.55;;;;;;;29.52;64.80;97586.97;1225104;75;2921573;-68
2023/07/16 07:55:25;;;;;;;4.25;3.15;;;;;;;29.54;68.06;97573.00;1224023;75;2960524;-67
2023/07/16 07:57:58;;;;;;;4.95;3.35;;;;;;;29.47;72.74;97582.44;1224577;75;2917145;-71
2023/07/16 08:00:30;;;;;;;5.30;3.55;;;;;;;29.04;74.11;97583.22;1224993;75;2927520;-67
2023/07/16 08:03:03;;;;;;;5.80;4.20;;;;;;;29.23;71.26;97581.63;1225393;75;2916676;-68
2023/07/16 08:05:36;;;;;;;4.25;3.70;;;;;;;29.34;72.62;97575.25;1224629;75;2928618;-68
2023/07/16 08:08:11;;;;;;;7.10;3.90;;;;;;;29.23;70.68;97587.25;1223369;75;2922489;-70
2023/07/16 08:10:45;;;;;;;5.80;4.00;;;;;;;29.41;68.79;97587.69;1211891;75;3812072;-65
2023/07/16 08:13:18;;;;;;;4.90;3.65;;;;;;;29.47;68.79;97588.81;1224380;75;2927960;-68
2023/07/16 08:15:51;;;;;;;3.60;2.75;;;;;;;30.12;62.30;97603.41;1224370;75;2920168;-69
2023/07/16 08:18:23;;;;;;;3.05;2.75;;;;;;;30.42;60.20;97598.13;1224868;75;2924340;-68
2023/07/16 08:20:56;;;;;;;3.05;2.50;;;;;;;30.48;58.76;97598.50;1224688;75;2927156;-67
2023/07/16 08:23:33;;;;;;;3.30;2.50;;;;;;;30.62;54.95;97597.84;1223884;75;2918234;-69
2023/07/16 08:26:06;;;;;;;2.30;2.10;;;;;;;30.77;54.21;97598.09;1224126;75;2916949;-70
2023/07/16 08:28:38;;;;;;;2.00;1.80;;;;;;;31.14;54.11;97605.84;1223983;75;2937585;-68
2023/07/16 08:31:11;;;;;;;1.95;1.70;;;;;;;31.15;52.44;97607.34;1223724;75;2992954;-67
2023/07/16 08:33:44;;;;;;;2.30;1.90;;;;;;;31.46;50.82;97606.25;1224383;75;2887002;-69
2023/07/16 08:36:16;;;;;;;1.70;1.60;;;;;;;31.45;52.66;97609.69;1224386;75;2920478;-66
2023/07/16 08:38:51;;;;;;;3.50;2.30;;;;;;;30.87;52.72;97608.53;1223359;75;2927223;-72
2023/07/16 08:41:24;;;;;;;2.80;2.10;;;;;;;31.31;52.65;97630.13;1224917;75;2919727;-69
2023/07/16 08:43:58;;;;;;;3.10;2.05;;;;;;;31.68;52.55;97623.72;1225476;75;2917453;-68
2023/07/16 08:46:31;;;;;;;3.30;2.40;;;;;;;31.49;50.97;97613.50;1224004;75;2929832;-69
2023/07/16 08:49:05;;;;;;;4.30;2.70;;;;;;;31.67;50.89;97618.69;1223467;75;2921815;-67
2023/07/16 08:51:39;;;;;;;3.35;2.40;;;;;;;31.73;49.37;97631.06;1224644;75;2920620;-70
2023/07/16 08:54:15;;;;;;;3.15;2.20;;;;;;;32.04;49.90;97615.78;1224645;75;2932728;-69
2023/07/16 08:56:48;;;;;;;3.25;2.40;;;;;;;32.00;49.98;97624.75;1224093;75;2936005;-67
2023/07/16 08:59:22;;;;;;;3.50;2.35;;;;;;;31.92;49.93;97623.56;1223783;75;2918831;-67
2023/07/16 09:01:54;;;;;;;4.95;3.00;;;;;;;32.19;49.45;97631.41;1224562;75;2925270;-68
2023/07/16 09:04:27;;;;;;;2.75;2.20;;;;;;;32.42;50.14;97634.06;1224694;75;2924236;-71
2023/07/16 09:06:59;;;;;;;4.90;2.45;;;;;;;32.57;50.54;97634.78;1224153;75;2923058;-68
2023/07/16 09:09:35;;;;;;;4.10;2.00;;;;;;;32.83;48.79;97632.56;1224458;75;2921420;-70
2023/07/16 09:12:08;;;;;;;2.05;1.70;;;;;;;32.94;48.73;97636.66;1224659;75;2921766;-69
2023/07/16 09:14:43;;;;;;;2.45;1.85;;;;;;;32.79;48.97;97638.06;1223914;75;2914479;-69
2023/07/16 09:17:16;;;;;;;2.80;2.60;;;;;;;32.90;49.44;97637.19;1224688;75;2927411;-69
2023/07/16 09:19:50;;;;;;;3.55;3.25;;;;;;;32.97;47.25;97635.41;1224694;75;2920617;-69
2023/07/16 09:22:23;;;;;;;2.40;2.20;;;;;;;32.68;47.45;97637.53;1224212;75;2915870;-68
2023/07/16 09:24:58;;;;;;;1.75;1.65;;;;;;;32.99;47.91;97633.41;1225007;75;2918810;-70
2023/07/16 09:27:33;;;;;;;2.45;2.00;;;;;;;32.94;47.05;97637.41;1223783;75;2920817;-70
2023/07/16 09:30:06;;;;;;;5.60;2.60;;;;;;;32.47;48.26;97640.66;1224692;75;2914894;-70
2023/07/16 09:32:41;;;;;;;3.50;2.60;;;;;;;32.43;48.38;97637.63;1223912;75;2925463;-69
2023/07/16 09:35:15;;;;;;;3.15;2.55;;;;;;;32.91;48.20;97635.09;1224507;75;2924232;-71
2023/07/16 09:37:48;;;;;;;2.40;2.20;;;;;;;32.27;49.05;97637.50;1224883;75;2920971;-70
2023/07/16 09:40:23;;;;;;;2.65;2.30;;;;;;;33.13;47.77;97641.19;1224333;75;2914490;-71
2023/07/16 09:42:57;;;;;;;3.15;2.40;;;;;;;32.87;47.23;97642.03;1224740;75;2916455;-69
2023/07/16 09:45:31;;;;;;;2.00;1.80;;;;;;;33.33;48.05;97639.31;1224843;75;2925423;-68
2023/07/16 09:48:03;;;;;;;5.50;2.55;;;;;;;33.08;47.03;97638.13;1224513;75;2939645;-70
2023/07/16 09:50:40;;;;;;;2.95;2.40;;;;;;;32.91;47.62;97638.66;1224869;75;2921219;-70
2023/07/16 09:53:14;;;;;;;3.50;2.40;;;;;;;33.15;46.54;97638.44;1225132;75;2918735;-69
2023/07/16 09:55:51;;;;;;;2.80;2.30;;;;;;;33.07;46.29;97639.50;1224738;75;2920754;-69
2023/07/16 09:58:26;;;;;;;2.40;2.20;;;;;;;33.14;46.12;97639.81;1225010;75;2912267;-69
2023/07/16 10:01:00;;;;;;;1.85;1.60;;;;;;;33.75;46.14;97639.94;1224378;75;2928046;-70
2023/07/16 10:03:32;;;;;;;2.60;2.05;;;;;;;33.62;46.25;97635.75;1224135;75;2910472;-71
2023/07/16 10:06:11;;;;;;;1.80;1.70;;;;;;;33.91;45.26;97634.25;1224729;75;2946342;-68
2023/07/16 10:08:51;;;;;;;2.35;2.05;;;;;;;33.85;45.10;97642.50;1224843;75;2921124;-68
2023/07/16 10:11:27;;;;;;;2.45;2.25;;;;;;;33.10;45.21;97632.56;1224682;75;2919177;-69
2023/07/16 10:13:59;;;;;;;2.40;1.95;;;;;;;33.48;44.17;97641.50;1224592;75;2926645;-69
2023/07/16 10:16:39;;;;;;;1.90;1.70;;;;;;;33.80;44.24;97632.34;1224219;75;2920824;-70
2023/07/16 10:19:12;;;;;;;2.85;2.35;;;;;;;33.90;44.09;97632.78;1224534;75;2924767;-69
2023/07/16 10:21:48;;;;;;;3.35;2.10;;;;;;;34.04;44.17;97630.59;1225043;75;2922307;-70
2023/07/16 10:24:21;;;;;;;3.35;2.45;;;;;;;33.19;44.70;97636.53;1224240;75;2925689;-70
2023/07/16 10:26:56;;;;;;;3.05;2.40;;;;;;;33.42;44.80;97631.94;1224843;75;2918793;-70
2023/07/16 10:29:29;;;;;;;2.50;2.30;;;;;;;33.41;45.58;97628.38;1224981;75;2918216;-70
2023/07/16 10:32:02;;;;;;;2.65;2.05;;;;;;;34.16;45.29;97624.78;1224592;75;2923069;-68
2023/07/16 10:34:35;;;;;;;3.00;2.40;;;;;;;34.49;44.98;97626.19;1224723;75;2920012;-70
2023/07/16 10:37:09;;;;;;;3.70;2.55;;;;;;;34.19;45.08;97626.31;1225313;75;2920301;-69
2023/07/16 10:39:50;;;;;;;2.30;2.05;;;;;;;34.01;44.85;97620.53;1223560;75;2935996;-69
2023/07/16 10:42:28;;;;;;;2.10;1.85;;;;;;;34.37;43.69;97615.03;1224875;75;2926011;-70
2023/07/16 10:45:03;;;;;;;2.30;1.90;;;;;;;34.66;43.88;97616.28;1224941;75;2915581;-71
2023/07/16 10:47:39;;;;;;;2.00;1.80;;;;;;;34.69;44.27;97627.09;1225223;75;2926453;-70
2023/07/16 10:50:13;;;;;;;3.25;1.85;;;;;;;34.35;43.35;97615.69;1224401;75;2918106;-71
2023/07/16 10:52:45;;;;;;;2.45;2.20;;;;;;;33.80;43.65;97618.13;1225280;75;2918812;-72
2023/07/16 10:55:18;;;;;;;3.15;2.35;;;;;;;34.13;45.43;97617.50;1224305;75;2923229;-70
2023/07/16 10:57:54;;;;;;;3.90;3.10;;;;;;;34.22;45.29;97610.09;1223930;75;2921754;-70
2023/07/16 11:00:27;;;;;;;3.25;2.60;;;;;;;34.54;45.78;97608.69;1225409;75;2917167;-70
2023/07/16 11:03:00;;;;;;;2.45;1.90;;;;;;;35.07;44.99;97613.03;1222795;75;2928316;-69
2023/07/16 11:05:33;;;;;;;2.20;1.80;;;;;;;34.96;44.17;97614.72;1224265;75;2915984;-71
2023/07/16 11:08:06;;;;;;;2.65;2.10;;;;;;;34.82;44.86;97621.94;1225572;75;2914213;-72
2023/07/16 11:10:38;;;;;;;2.80;2.30;;;;;;;35.10;45.28;97616.72;1225006;75;2923905;-70
2023/07/16 11:13:14;;;;;;;2.65;2.40;;;;;;;34.33;44.10;97621.28;1224617;75;2928962;-69
2023/07/16 11:15:46;;;;;;;3.10;2.60;;;;;;;34.66;45.49;97625.56;1223653;75;2921962;-69
2023/07/16 11:18:19;;;;;;;2.60;2.40;;;;;;;35.14;44.82;97622.56;1225838;75;2861973;-71
2023/07/16 11:20:55;;;;;;;2.90;2.30;;;;;;;34.98;44.04;97619.78;1226591;75;2844858;-71
2023/07/16 11:23:28;;;;;;;2.40;2.00;;;;;;;35.48;43.35;97616.78;1225273;75;2918768;-72
2023/07/16 11:26:04;;;;;;;2.55;2.00;;;;;;;35.69;43.35;97618.34;1224749;75;2919834;-69
2023/07/16 11:28:44;;;;;;;2.90;2.60;;;;;;;34.87;43.38;97615.03;1225055;75;2914072;-69
2023/07/16 11:31:19;;;;;;;2.85;2.50;;;;;;;35.11;43.52;97613.22;1225358;75;2913462;-72
2023/07/16 11:33:52;;;;;;;2.60;2.40;;;;;;;35.13;43.58;97621.13;1224525;75;2919857;-71
2023/07/16 11:36:24;;;;;;;3.00;2.65;;;;;;;35.17;43.68;97616.31;1224653;75;2916027;-69
2023/07/16 11:38:57;;;;;;;3.75;2.10;;;;;;;35.83;43.66;97618.91;1225038;75;2920445;-68
2023/07/16 11:41:30;;;;;;;3.50;2.90;;;;;;;35.24;42.51;97616.56;1223378;75;2922966;-68